createdAt,value
2023-03-30T00:01:14.592Z,0.70
2023-03-30T00:03:43.063Z,1.20
2023-03-30T00:06:12.502Z,0.70
2023-03-30T00:08:39.129Z,1.02
2023-03-30T00:11:06.246Z,0.80
2023-03-30T00:13:35.453Z,0.80
2023-03-30T00:16:02.939Z,0.70
2023-03-30T00:18:32.173Z,0.93
2023-03-30T00:20:59.218Z,0.50
2023-03-30T00:23:26.198Z,0.63
2023-03-30T00:25:52.806Z,0.95
2023-03-30T00:28:19.758Z,1.08
2023-03-30T00:30:48.111Z,1.02
2023-03-30T00:33:15.112Z,0.80
2023-03-30T00:35:42.210Z,1.30
2023-03-30T00:38:09.471Z,0.90
2023-03-30T00:40:36.734Z,0.73
2023-03-30T00:43:05.978Z,0.80
2023-03-30T00:45:34.478Z,0.88
2023-03-30T00:48:18.039Z,1.10
2023-03-30T00:50:45.981Z,1.40
2023-03-30T00:53:22.646Z,0.70
2023-03-30T00:55:51.941Z,1.00
2023-03-30T00:58:21.335Z,0.80
2023-03-30T01:00:48.613Z,0.90
2023-03-30T01:03:37.607Z,0.98
2023-03-30T01:06:07.621Z,0.93
2023-03-30T01:08:34.768Z,1.38
2023-03-30T01:11:03.564Z,0.95
2023-03-30T01:13:35.925Z,0.82
2023-03-30T01:16:06.223Z,1.17
2023-03-30T01:18:55.463Z,0.90
2023-03-30T01:22:04.800Z,0.63
2023-03-30T01:24:49.213Z,1.10
2023-03-30T01:28:00.986Z,1.00
2023-03-30T01:30:37.435Z,0.85
2023-03-30T01:33:28.785Z,0.73
2023-03-30T01:36:40.180Z,1.02
2023-03-30T01:39:12.924Z,0.90
2023-03-30T01:41:57.797Z,0.55
2023-03-30T01:44:41.731Z,1.60
2023-03-30T01:47:26.807Z,1.50
2023-03-30T01:50:07.608Z,0.60
2023-03-30T01:52:42.455Z,1.00
2023-03-30T01:55:16.945Z,0.70
2023-03-30T01:58:08.105Z,0.93
2023-03-30T02:00:38.247Z,1.10
2023-03-30T02:03:12.411Z,1.00
2023-03-30T02:05:40.856Z,1.15
2023-03-30T02:08:12.443Z,0.60
2023-03-30T02:13:08.281Z,0.80
2023-03-30T02:15:42.862Z,0.82
2023-03-30T02:18:10.457Z,0.88
2023-03-30T02:20:39.034Z,0.85
2023-03-30T02:23:07.121Z,1.35
2023-03-30T02:25:36.221Z,0.70
2023-03-30T02:28:02.877Z,0.90
2023-03-30T02:30:34.717Z,1.35
2023-03-30T02:33:02.061Z,0.80
2023-03-30T02:35:43.746Z,1.25
2023-03-30T02:38:41.820Z,1.40
2023-03-30T02:41:26.877Z,1.40
2023-03-30T02:44:26.761Z,0.95
2023-03-30T02:47:07.260Z,1.98
2023-03-30T02:49:50.896Z,1.00
2023-03-30T02:52:36.889Z,0.85
2023-03-30T02:55:15.465Z,0.93
2023-03-30T02:58:21.319Z,1.00
2023-03-30T03:01:33.635Z,1.30
2023-03-30T03:04:15.692Z,0.93
2023-03-30T03:07:15.572Z,0.93
2023-03-30T03:09:43.087Z,1.77
2023-03-30T03:12:10.210Z,0.73
2023-03-30T03:14:39.095Z,1.20
2023-03-30T03:17:06.294Z,1.05
2023-03-30T03:19:37.613Z,1.08
2023-03-30T03:22:04.722Z,0.80
2023-03-30T03:24:39.181Z,1.50
2023-03-30T03:27:08.786Z,1.75
2023-03-30T03:29:52.141Z,1.08
2023-03-30T03:32:19.535Z,1.00
2023-03-30T03:34:48.421Z,1.00
2023-03-30T03:37:15.630Z,1.10
2023-03-30T03:39:44.341Z,1.00
2023-03-30T03:42:12.624Z,0.93
2023-03-30T03:44:50.788Z,1.00
2023-03-30T03:47:18.243Z,1.00
2023-03-30T03:49:46.476Z,1.08
2023-03-30T03:52:13.522Z,1.35
2023-03-30T03:54:40.340Z,1.15
2023-03-30T03:57:07.201Z,2.35
2023-03-30T03:59:33.871Z,0.85
2023-03-30T04:02:00.797Z,1.30
2023-03-30T04:04:27.774Z,1.65
2023-03-30T04:06:56.287Z,1.25
2023-03-30T04:09:23.530Z,1.20
2023-03-30T04:12:31.904Z,1.70
2023-03-30T04:15:21.319Z,1.25
2023-03-30T04:18:08.751Z,1.33
2023-03-30T04:21:07.149Z,1.60
2023-03-30T04:23:57.073Z,1.17
2023-03-30T04:26:32.409Z,1.30
2023-03-30T04:29:08.088Z,1.50
2023-03-30T04:31:53.989Z,1.75
2023-03-30T04:34:44.412Z,1.42
2023-03-30T04:37:31.615Z,1.95
2023-03-30T04:40:09.530Z,1.52
2023-03-30T04:42:52.672Z,1.33
2023-03-30T04:45:37.908Z,1.88
2023-03-30T04:48:24.315Z,1.25
2023-03-30T04:51:16.999Z,0.98
2023-03-30T04:54:12.997Z,1.90
2023-03-30T04:57:09.346Z,1.17
2023-03-30T04:59:44.923Z,1.95
2023-03-30T05:02:31.938Z,1.52
2023-03-30T05:05:21.680Z,1.20
2023-03-30T05:08:08.889Z,1.00
2023-03-30T05:11:07.936Z,1.33
2023-03-30T05:13:55.896Z,1.33
2023-03-30T05:16:44.758Z,1.35
2023-03-30T05:19:29.404Z,1.73
2023-03-30T05:22:16.396Z,1.67
2023-03-30T05:24:52.201Z,1.05
2023-03-30T05:27:31.504Z,1.23
2023-03-30T05:30:20.779Z,1.40
2023-03-30T05:33:19.404Z,1.00
2023-03-30T05:36:09.966Z,1.10
2023-03-30T05:38:45.181Z,1.10
2023-03-30T05:41:25.040Z,1.23
2023-03-30T05:44:09.232Z,1.50
2023-03-30T05:46:56.168Z,2.08
2023-03-30T05:49:43.305Z,1.52
2023-03-30T05:52:33.146Z,1.73
2023-03-30T05:55:20.453Z,1.65
2023-03-30T05:58:13.833Z,2.10
2023-03-30T06:01:06.016Z,1.40
2023-03-30T06:03:39.109Z,1.65
2023-03-30T06:06:08.253Z,1.20
2023-03-30T06:08:35.672Z,1.85
2023-03-30T06:11:04.807Z,1.35
2023-03-30T06:13:42.991Z,1.85
2023-03-30T06:16:09.999Z,1.02
2023-03-30T06:18:37.763Z,1.83
2023-03-30T06:21:08.265Z,1.45
2023-03-30T06:24:04.572Z,1.50
2023-03-30T06:26:34.869Z,1.55
2023-03-30T06:29:02.067Z,1.65
2023-03-30T06:31:29.056Z,1.30
2023-03-30T06:34:14.246Z,1.63
2023-03-30T06:36:44.568Z,1.83
2023-03-30T06:39:12.715Z,1.50
2023-03-30T06:41:39.713Z,0.98
2023-03-30T06:44:06.919Z,1.33
2023-03-30T06:46:35.268Z,1.17
2023-03-30T06:49:02.121Z,1.33
2023-03-30T06:52:04.356Z,1.85
2023-03-30T06:54:33.415Z,1.38
2023-03-30T06:57:05.493Z,1.08
2023-03-30T06:59:35.192Z,1.30
2023-03-30T07:02:22.485Z,1.42
2023-03-30T07:04:50.207Z,1.58
2023-03-30T07:07:52.542Z,1.35
2023-03-30T07:10:20.012Z,1.35
2023-03-30T07:12:47.136Z,1.52
2023-03-30T07:15:14.816Z,1.02
2023-03-30T07:17:42.018Z,1.10
2023-03-30T07:20:10.854Z,1.48
2023-03-30T07:22:52.782Z,1.45
2023-03-30T07:25:19.482Z,1.05
2023-03-30T07:27:47.736Z,1.60
2023-03-30T07:30:21.909Z,0.98
2023-03-30T07:32:54.423Z,0.77
2023-03-30T07:35:22.694Z,1.10
2023-03-30T07:38:02.029Z,0.82
2023-03-30T07:40:32.820Z,1.10
2023-03-30T07:42:59.409Z,0.98
2023-03-30T07:45:27.069Z,1.52
2023-03-30T07:47:53.954Z,0.98
2023-03-30T07:50:21.547Z,1.35
2023-03-30T07:52:51.304Z,1.17
2023-03-30T07:55:18.548Z,0.82
2023-03-30T07:57:52.519Z,1.13
2023-03-30T08:00:20.756Z,1.10
2023-03-30T08:03:05.891Z,1.13
2023-03-30T08:05:32.690Z,2.00
2023-03-30T08:08:19.902Z,1.23
2023-03-30T08:10:46.769Z,0.85
2023-03-30T08:13:13.401Z,0.60
2023-03-30T08:15:40.129Z,0.73
2023-03-30T08:18:08.349Z,0.88
2023-03-30T08:20:37.604Z,1.02
2023-03-30T08:23:05.694Z,0.85
2023-03-30T08:25:32.972Z,1.13
2023-03-30T08:27:59.990Z,0.90
2023-03-30T08:30:26.682Z,1.05
2023-03-30T08:32:53.806Z,1.17
2023-03-30T08:35:21.747Z,1.00
2023-03-30T08:37:48.862Z,0.82
2023-03-30T08:40:17.889Z,0.73
2023-03-30T08:42:58.247Z,0.90
2023-03-30T08:45:25.121Z,1.30
2023-03-30T08:47:53.981Z,0.90
2023-03-30T08:50:51.952Z,0.65
2023-03-30T08:53:19.108Z,1.20
2023-03-30T08:56:16.210Z,1.65
2023-03-30T08:58:58.385Z,1.20
2023-03-30T09:01:29.133Z,1.02
2023-03-30T09:04:17.068Z,1.08
2023-03-30T09:07:21.570Z,0.90
2023-03-30T09:09:50.925Z,1.05
2023-03-30T09:12:41.864Z,1.73
2023-03-30T09:15:08.931Z,1.80
2023-03-30T09:17:42.602Z,1.90
2023-03-30T09:20:23.726Z,1.17
2023-03-30T09:22:53.814Z,1.20
2023-03-30T09:25:32.487Z,1.10
2023-03-30T09:28:22.013Z,1.98
2023-03-30T09:30:53.167Z,0.88
2023-03-30T09:34:12.314Z,1.42
2023-03-30T09:37:03.417Z,1.10
2023-03-30T09:39:33.543Z,1.40
2023-03-30T09:42:24.670Z,1.83
2023-03-30T09:45:13.652Z,1.48
2023-03-30T09:47:42.317Z,1.00
2023-03-30T09:50:28.635Z,1.45
2023-03-30T09:53:07.099Z,1.13
2023-03-30T09:55:35.761Z,1.40
2023-03-30T09:58:11.501Z,1.80
2023-03-30T10:00:39.371Z,1.63
2023-03-30T10:03:08.032Z,1.23
2023-03-30T10:05:36.728Z,1.00
2023-03-30T10:08:24.455Z,1.17
2023-03-30T10:10:57.485Z,1.42
2023-03-30T10:13:32.541Z,1.55
2023-03-30T10:16:05.682Z,1.00
2023-03-30T10:18:39.657Z,0.93
2023-03-30T10:21:15.529Z,0.98
2023-03-30T10:23:44.881Z,1.23
2023-03-30T10:26:19.976Z,1.45
2023-03-30T10:28:55.630Z,1.05
2023-03-30T10:31:25.626Z,1.10
2023-03-30T10:34:00.446Z,1.27
2023-03-30T10:36:34.281Z,1.70
2023-03-30T10:39:20.535Z,1.50
2023-03-30T10:41:48.698Z,1.63
2023-03-30T10:44:24.960Z,1.20
2023-03-30T10:46:56.360Z,0.98
2023-03-30T10:52:02.858Z,1.50
2023-03-30T10:54:48.790Z,1.02
2023-03-30T10:57:31.742Z,1.13
2023-03-30T11:00:15.414Z,1.30
2023-03-30T11:02:51.599Z,1.58
2023-03-30T11:05:32.431Z,1.27
2023-03-30T11:08:12.845Z,1.38
2023-03-30T11:10:44.440Z,0.93
2023-03-30T11:13:15.044Z,1.67
2023-03-30T11:15:55.456Z,1.60
2023-03-30T11:18:41.058Z,1.38
2023-03-30T11:21:47.240Z,1.40
2023-03-30T11:24:20.658Z,1.52
2023-03-30T11:27:06.990Z,1.02
2023-03-30T11:30:01.806Z,2.13
2023-03-30T11:32:52.944Z,1.38
2023-03-30T11:35:33.514Z,0.98
2023-03-30T11:38:24.729Z,1.33
2023-03-30T11:40:58.426Z,1.55
2023-03-30T11:43:28.320Z,1.30
2023-03-30T11:46:03.572Z,1.20
2023-03-30T11:48:42.822Z,2.03
2023-03-30T11:51:18.635Z,1.60
2023-03-30T11:54:04.953Z,1.58
2023-03-30T11:56:46.898Z,1.00
2023-03-30T11:59:31.597Z,1.73
2023-03-30T12:02:36.738Z,0.80
2023-03-30T12:05:16.684Z,0.80
2023-03-30T12:07:52.418Z,1.08
2023-03-30T12:10:23.947Z,1.60
2023-03-30T12:15:34.354Z,0.95
2023-03-30T12:18:15.054Z,0.65
2023-03-30T12:21:09.050Z,0.80
2023-03-30T12:24:11.618Z,0.73
2023-03-30T12:26:38.726Z,1.15
2023-03-30T12:29:44.343Z,1.08
2023-03-30T12:32:04.704Z,2.35
2023-03-30T12:34:41.302Z,1.33
2023-03-30T12:37:34.838Z,1.23
2023-03-30T12:40:22.644Z,1.08
2023-03-30T12:43:04.243Z,1.40
2023-03-30T12:45:33.118Z,1.55
2023-03-30T12:48:14.529Z,1.27
2023-03-30T12:51:07.146Z,0.88
2023-03-30T12:54:01.950Z,1.02
2023-03-30T12:56:38.477Z,0.95
2023-03-30T12:59:26.380Z,0.50
2023-03-30T13:02:05.332Z,0.88
2023-03-30T13:04:39.595Z,0.90
2023-03-30T13:07:21.586Z,0.90
2023-03-30T13:10:03.999Z,0.73
2023-03-30T13:12:42.468Z,0.80
2023-03-30T13:15:21.505Z,0.63
2023-03-30T13:17:56.231Z,1.10
2023-03-30T13:20:55.050Z,0.68
2023-03-30T13:23:21.700Z,0.65
2023-03-30T13:25:54.495Z,0.52
2023-03-30T13:28:58.567Z,0.43
2023-03-30T13:32:02.817Z,0.90
2023-03-30T13:34:59.030Z,0.70
2023-03-30T13:37:55.211Z,0.98
2023-03-30T13:40:40.334Z,1.02
2023-03-30T13:43:33.265Z,1.20
2023-03-30T13:46:16.909Z,0.95
2023-03-30T13:48:56.075Z,1.48
2023-03-30T13:51:25.984Z,1.63
2023-03-30T13:53:58.372Z,1.27
2023-03-30T13:56:27.297Z,1.20
2023-03-30T13:59:06.517Z,1.55
2023-03-30T14:01:34.637Z,0.93
2023-03-30T14:04:03.890Z,1.73
2023-03-30T14:06:34.318Z,1.30
2023-03-30T14:09:05.565Z,1.27
2023-03-30T14:11:39.882Z,1.33
2023-03-30T14:14:07.074Z,0.90
2023-03-30T14:16:40.504Z,1.42
2023-03-30T14:19:08.241Z,1.05
2023-03-30T14:21:39.669Z,1.10
2023-03-30T14:24:12.766Z,1.48
2023-03-30T14:26:42.384Z,1.35
2023-03-30T14:29:28.259Z,1.17
2023-03-30T14:32:07.832Z,1.65
2023-03-30T14:34:35.969Z,1.67
2023-03-30T14:37:08.040Z,1.88
2023-03-30T14:39:41.208Z,1.70
2023-03-30T14:42:24.218Z,1.80
2023-03-30T14:44:54.021Z,1.50
2023-03-30T14:47:23.568Z,2.03
2023-03-30T14:50:01.892Z,1.45
2023-03-30T14:52:38.006Z,1.73
2023-03-30T14:55:09.927Z,1.98
2023-03-30T14:57:41.824Z,2.15
2023-03-30T15:00:23.460Z,2.38
2023-03-30T15:05:21.378Z,1.70
2023-03-30T15:07:50.753Z,1.63
2023-03-30T15:10:25.906Z,1.70
2023-03-30T15:12:57.872Z,1.50
2023-03-30T15:15:29.759Z,1.30
2023-03-30T15:17:57.315Z,1.70
2023-03-30T15:20:29.903Z,1.33
2023-03-30T15:22:56.963Z,1.50
2023-03-30T15:25:31.424Z,1.38
2023-03-30T15:28:01.331Z,1.35
2023-03-30T15:30:43.920Z,1.73
2023-03-30T15:33:30.977Z,1.70
2023-03-30T15:36:05.625Z,1.08
2023-03-30T15:38:35.957Z,1.88
2023-03-30T15:41:02.817Z,1.77
2023-03-30T15:43:33.568Z,1.48
2023-03-30T15:46:12.616Z,1.53
2023-03-30T15:48:44.130Z,1.83
2023-03-30T15:51:17.459Z,1.45
2023-03-30T15:53:51.643Z,1.67
2023-03-30T15:56:27.917Z,1.70
2023-03-30T15:58:54.846Z,1.80
2023-03-30T16:01:23.245Z,1.75
2023-03-30T16:04:00.239Z,1.63
2023-03-30T16:06:39.833Z,1.80
2023-03-30T16:09:08.183Z,1.70
2023-03-30T16:11:51.357Z,1.73
2023-03-30T16:14:20.358Z,1.42
2023-03-30T16:16:48.070Z,1.27
2023-03-30T16:19:18.482Z,1.90
2023-03-30T16:21:45.695Z,1.75
2023-03-30T16:24:12.526Z,1.58
2023-03-30T16:26:39.275Z,1.50
2023-03-30T16:29:18.140Z,1.75
2023-03-30T16:31:44.863Z,1.50
2023-03-30T16:34:11.429Z,1.33
2023-03-30T16:36:38.148Z,1.77
2023-03-30T16:39:06.427Z,1.48
2023-03-30T16:41:32.932Z,1.65
2023-03-30T16:43:59.812Z,1.60
2023-03-30T16:46:27.149Z,1.77
2023-03-30T16:48:53.776Z,1.83
2023-03-30T16:51:20.440Z,3.13
2023-03-30T16:53:47.653Z,2.53
2023-03-30T16:56:19.019Z,2.47
2023-03-30T16:58:46.723Z,1.77
2023-03-30T17:01:18.410Z,2.17
2023-03-30T17:03:45.788Z,2.22
2023-03-30T17:06:14.048Z,2.63
2023-03-30T17:08:42.948Z,2.10
2023-03-30T17:11:10.860Z,1.55
2023-03-30T17:13:37.439Z,1.70
2023-03-30T17:16:04.165Z,1.67
2023-03-30T17:18:31.618Z,1.77
2023-03-30T17:21:02.148Z,1.77
2023-03-30T17:23:31.970Z,2.05
2023-03-30T17:26:00.359Z,1.80
2023-03-30T17:28:33.639Z,1.73
2023-03-30T17:31:02.979Z,1.58
2023-03-30T17:33:31.729Z,1.58
2023-03-30T17:36:11.229Z,1.50
2023-03-30T17:38:38.279Z,1.75
2023-03-30T17:41:07.321Z,1.85
2023-03-30T17:43:34.414Z,1.90
2023-03-30T17:46:01.597Z,2.00
2023-03-30T17:48:28.456Z,2.25
2023-03-30T17:50:55.270Z,1.85
2023-03-30T17:53:26.626Z,1.40
2023-03-30T17:58:26.083Z,1.75
2023-03-30T18:00:53.751Z,2.17
2023-03-30T18:03:22.565Z,1.50
2023-03-30T18:05:50.729Z,1.90
2023-03-30T18:08:21.348Z,2.05
2023-03-30T18:10:59.049Z,1.70
2023-03-30T18:13:27.813Z,2.95
2023-03-30T18:15:56.904Z,1.60
2023-03-30T18:18:26.105Z,1.83
2023-03-30T18:20:55.384Z,1.58
2023-03-30T18:23:22.548Z,1.40
2023-03-30T18:25:49.914Z,2.10
2023-03-30T18:28:24.801Z,1.58
2023-03-30T18:30:53.407Z,1.13
2023-03-30T18:33:20.210Z,1.50
2023-03-30T18:35:49.269Z,1.35
2023-03-30T18:38:19.489Z,0.80
2023-03-30T18:40:53.386Z,0.65
2023-03-30T18:43:20.429Z,0.95
2023-03-30T18:45:49.470Z,1.05
2023-03-30T18:48:19.215Z,0.68
2023-03-30T18:50:47.716Z,0.75
2023-03-30T18:53:17.057Z,1.40
2023-03-30T18:55:46.252Z,0.90
2023-03-30T18:58:14.695Z,0.85
2023-03-30T19:00:41.324Z,0.90
2023-03-30T19:03:08.163Z,0.98
2023-03-30T19:05:35.676Z,0.80
2023-03-30T19:08:02.319Z,0.90
2023-03-30T19:10:31.618Z,0.85
2023-03-30T19:12:59.150Z,0.82
2023-03-30T19:15:33.027Z,0.85
2023-03-30T19:18:00.795Z,0.88
2023-03-30T19:20:29.616Z,0.70
2023-03-30T19:22:56.418Z,0.90
2023-03-30T19:25:24.603Z,1.00
2023-03-30T19:28:02.562Z,0.88
2023-03-30T19:30:32.643Z,0.85
2023-03-30T19:33:02.867Z,1.00
2023-03-30T19:35:29.904Z,6.50
2023-03-30T19:37:57.257Z,9.35
2023-03-30T19:40:24.693Z,10.85
2023-03-30T19:42:51.572Z,2.63
2023-03-30T19:45:21.376Z,1.25
2023-03-30T19:47:48.056Z,0.80
2023-03-30T19:50:18.055Z,0.90
2023-03-30T19:52:49.993Z,1.20
2023-03-30T19:55:20.870Z,1.35
2023-03-30T19:57:47.724Z,1.30
2023-03-30T20:00:17.049Z,0.90
2023-03-30T20:02:49.432Z,0.80
2023-03-30T20:05:16.835Z,0.98
2023-03-30T20:07:45.566Z,1.40
2023-03-30T20:10:16.650Z,0.90
2023-03-30T20:12:43.390Z,1.00
2023-03-30T20:15:11.341Z,0.65
2023-03-30T20:17:39.139Z,0.93
2023-03-30T20:20:09.320Z,1.02
2023-03-30T20:22:37.232Z,1.20
2023-03-30T20:25:06.459Z,1.25
2023-03-30T20:27:33.969Z,2.40
2023-03-30T20:30:01.776Z,1.33
2023-03-30T20:32:28.495Z,1.48
2023-03-30T20:34:55.331Z,1.10
2023-03-30T20:37:21.860Z,1.23
2023-03-30T20:39:50.644Z,1.15
2023-03-30T20:42:18.143Z,1.08
2023-03-30T20:44:50.361Z,1.50
2023-03-30T20:47:18.214Z,1.10
2023-03-30T20:49:46.372Z,1.30
2023-03-30T20:52:13.066Z,1.20
2023-03-30T20:54:41.179Z,2.05
2023-03-30T20:57:08.081Z,3.90
2023-03-30T20:59:34.732Z,2.72
2023-03-30T21:02:01.327Z,1.40
2023-03-30T21:04:28.867Z,1.38
2023-03-30T21:06:55.907Z,1.38
2023-03-30T21:09:22.557Z,1.58
2023-03-30T21:11:49.799Z,1.70
2023-03-30T21:14:16.611Z,1.63
2023-03-30T21:16:43.659Z,1.95
2023-03-30T21:19:11.517Z,1.50
2023-03-30T21:21:38.963Z,1.48
2023-03-30T21:24:08.724Z,1.58
2023-03-30T21:26:35.601Z,1.30
2023-03-30T21:29:02.267Z,1.27
2023-03-30T21:31:29.307Z,1.17
2023-03-30T21:33:56.141Z,1.83
2023-03-30T21:36:23.271Z,1.83
2023-03-30T21:38:50.074Z,1.90
2023-03-30T21:41:19.413Z,1.73
2023-03-30T21:43:47.314Z,2.42
2023-03-30T21:46:18.680Z,2.05
2023-03-30T21:48:46.215Z,2.22
2023-03-30T21:51:19.658Z,2.13
2023-03-30T21:53:48.452Z,2.40
2023-03-30T21:56:15.508Z,2.65
2023-03-30T21:58:42.350Z,2.25
2023-03-30T22:01:12.193Z,2.65
2023-03-30T22:03:41.274Z,1.95
2023-03-30T22:06:10.281Z,2.50
2023-03-30T22:08:37.061Z,2.15
2023-03-30T22:11:06.685Z,2.50
2023-03-30T22:13:33.834Z,2.15
2023-03-30T22:16:06.536Z,2.38
2023-03-30T22:18:34.339Z,2.58
2023-03-30T22:21:03.359Z,2.10
2023-03-30T22:23:30.930Z,1.73
2023-03-30T22:25:58.095Z,2.13
2023-03-30T22:28:24.830Z,2.15
2023-03-30T22:30:51.712Z,2.15
2023-03-30T22:33:19.021Z,1.95
2023-03-30T22:35:46.863Z,2.15
2023-03-30T22:38:14.978Z,2.38
2023-03-30T22:40:42.077Z,2.72
2023-03-30T22:43:10.052Z,2.60
2023-03-30T22:45:36.984Z,1.80
2023-03-30T22:48:04.071Z,2.08
2023-03-30T22:50:31.026Z,2.30
2023-03-30T22:52:57.915Z,1.77
2023-03-30T22:55:24.940Z,2.67
2023-03-30T22:57:53.172Z,2.30
2023-03-30T23:00:21.218Z,2.30
2023-03-30T23:02:49.674Z,1.88
2023-03-30T23:05:17.143Z,2.70
2023-03-30T23:07:44.484Z,2.22
2023-03-30T23:10:15.260Z,2.45
2023-03-30T23:12:43.290Z,2.20
2023-03-30T23:15:11.091Z,2.00
2023-03-30T23:17:38.632Z,2.85
2023-03-30T23:20:10.022Z,2.60
2023-03-30T23:22:38.219Z,2.70
2023-03-30T23:25:06.460Z,2.08
2023-03-30T23:27:33.873Z,1.77
2023-03-30T23:30:01.065Z,2.22
2023-03-30T23:32:27.776Z,2.17
2023-03-30T23:34:54.542Z,2.90
2023-03-30T23:37:22.035Z,2.45
2023-03-30T23:39:48.942Z,1.98
2023-03-30T23:42:16.386Z,2.58
2023-03-30T23:44:43.012Z,2.70
2023-03-30T23:47:09.784Z,2.20
2023-03-30T23:49:36.334Z,2.25
2023-03-30T23:52:03.282Z,3.20
2023-03-30T23:54:31.534Z,2.55
2023-03-30T23:56:58.503Z,2.45
2023-03-30T23:59:25.789Z,2.28
